Terminal Aerodrome Forecast
Issued by NWS Sterling, VA

Current Version | Previous Version | Text Only | Print | Product List | Glossary Off
Versions: 1 2 3 4 5 6 7 8 9 10 11 12 13 14 15 16 17 18

078
FTUS41 KLWX 151729
TAFMRB
TAF
KMRB 151729Z 1518/1618 32004KT P6SM SCT250
     FM160600 00000KT P6SM BKN100
     FM161400 VRB03KT P6SM OVC030
     FM161600 VRB03KT P6SM OVC015=

USA.gov is the U.S. government's official web portal to all federal, state and local government web resources and services.